sensor_id;sensor_type;location;lat;lon;timestamp;pressure;altitude;pressure_sealevel;temperature;humidity
10135;BME280;5107;48.850;8.924;2023-11-19T00:01:34;96697.78;;;8.20;100.00
10135;BME280;5107;48.850;8.924;2023-11-19T00:03:59;96678.00;;;8.26;100.00
10135;BME280;5107;48.850;8.924;2023-11-19T00:06:25;96680.03;;;8.32;100.00
10135;BME280;5107;48.850;8.924;2023-11-19T00:08:50;96681.03;;;8.39;100.00
10135;BME280;5107;48.850;8.924;2023-11-19T00:11:16;96672.22;;;8.48;100.00
10135;BME280;5107;48.850;8.924;2023-11-19T00:13:41;96671.28;;;8.57;100.00
10135;BME280;5107;48.850;8.924;2023-11-19T00:16:07;96655.91;;;8.70;100.00
10135;BME280;5107;48.850;8.924;2023-11-19T00:18:34;96658.91;;;8.84;100.00
10135;BME280;5107;48.850;8.924;2023-11-19T00:21:00;96661.41;;;8.93;100.00
10135;BME280;5107;48.850;8.924;2023-11-19T00:23:27;96657.97;;;9.01;100.00
10135;BME280;5107;48.850;8.924;2023-11-19T00:25:52;96651.09;;;9.08;100.00
10135;BME280;5107;48.850;8.924;2023-11-19T00:28:18;96641.09;;;9.11;100.00
10135;BME280;5107;48.850;8.924;2023-11-19T00:30:43;96639.63;;;9.17;100.00
10135;BME280;5107;48.850;8.924;2023-11-19T00:33:08;96640.75;;;9.23;100.00
10135;BME280;5107;48.850;8.924;2023-11-19T00:35:33;96647.81;;;9.22;100.00
10135;BME280;5107;48.850;8.924;2023-11-19T00:37:59;96646.53;;;9.26;100.00
10135;BME280;5107;48.850;8.924;2023-11-19T00:40:25;96644.72;;;9.27;100.00
10135;BME280;5107;48.850;8.924;2023-11-19T00:42:50;96646.00;;;9.31;100.00
10135;BME280;5107;48.850;8.924;2023-11-19T00:45:16;96631.75;;;9.33;100.00
10135;BME280;5107;48.850;8.924;2023-11-19T00:47:41;96625.16;;;9.37;100.00
10135;BME280;5107;48.850;8.924;2023-11-19T00:50:07;96627.00;;;9.37;100.00
10135;BME280;5107;48.850;8.924;2023-11-19T00:52:36;96625.00;;;9.39;100.00
10135;BME280;5107;48.850;8.924;2023-11-19T00:55:03;96624.03;;;9.40;100.00
10135;BME280;5107;48.850;8.924;2023-11-19T00:57:29;96628.13;;;9.42;100.00
10135;BME280;5107;48.850;8.924;2023-11-19T00:59:55;96632.25;;;9.45;100.00
10135;BME280;5107;48.850;8.924;2023-11-19T01:02:20;96627.81;;;9.45;100.00
10135;BME280;5107;48.850;8.924;2023-11-19T01:04:46;96620.72;;;9.46;100.00
10135;BME280;5107;48.850;8.924;2023-11-19T01:07:11;96616.97;;;9.48;100.00
10135;BME280;5107;48.850;8.924;2023-11-19T01:09:41;96619.59;;;9.48;100.00
10135;BME280;5107;48.850;8.924;2023-11-19T01:12:07;96616.66;;;9.51;100.00
10135;BME280;5107;48.850;8.924;2023-11-19T01:14:32;96619.44;;;9.50;100.00
10135;BME280;5107;48.850;8.924;2023-11-19T01:16:58;96613.19;;;9.51;100.00
10135;BME280;5107;48.850;8.924;2023-11-19T01:19:24;96617.78;;;9.49;100.00
10135;BME280;5107;48.850;8.924;2023-11-19T01:21:50;96616.66;;;9.51;100.00
10135;BME280;5107;48.850;8.924;2023-11-19T01:24:15;96613.03;;;9.52;100.00
10135;BME280;5107;48.850;8.924;2023-11-19T01:26:41;96613.03;;;9.52;100.00
10135;BME280;5107;48.850;8.924;2023-11-19T01:29:11;96619.75;;;9.55;100.00
10135;BME280;5107;48.850;8.924;2023-11-19T01:31:40;96620.25;;;9.59;100.00
10135;BME280;5107;48.850;8.924;2023-11-19T01:34:05;96614.00;;;9.60;100.00
10135;BME280;5107;48.850;8.924;2023-11-19T01:36:30;96615.97;;;9.58;100.00
10135;BME280;5107;48.850;8.924;2023-11-19T01:38:56;96612.22;;;9.60;100.00
10135;BME280;5107;48.850;8.924;2023-11-19T01:41:22;96621.72;;;9.61;100.00
10135;BME280;5107;48.850;8.924;2023-11-19T01:43:50;96620.91;;;9.61;100.00
10135;BME280;5107;48.850;8.924;2023-11-19T01:46:16;96610.88;;;9.64;100.00
10135;BME280;5107;48.850;8.924;2023-11-19T01:48:44;96617.09;;;9.71;100.00
10135;BME280;5107;48.850;8.924;2023-11-19T01:51:11;96612.34;;;9.67;100.00
10135;BME280;5107;48.850;8.924;2023-11-19T01:53:38;96608.91;;;9.66;100.00
10135;BME280;5107;48.850;8.924;2023-11-19T01:56:07;96610.72;;;9.66;100.00
10135;BME280;5107;48.850;8.924;2023-11-19T01:58:35;96607.25;;;9.65;100.00
10135;BME280;5107;48.850;8.924;2023-11-19T02:01:00;96606.28;;;9.66;100.00
10135;BME280;5107;48.850;8.924;2023-11-19T02:03:30;96619.09;;;9.69;100.00
10135;BME280;5107;48.850;8.924;2023-11-19T02:05:56;96601.53;;;9.70;100.00
10135;BME280;5107;48.850;8.924;2023-11-19T02:08:23;96591.66;;;9.72;100.00
10135;BME280;5107;48.850;8.924;2023-11-19T02:10:48;96591.03;;;9.70;100.00
10135;BME280;5107;48.850;8.924;2023-11-19T02:13:13;96595.91;;;9.73;100.00
10135;BME280;5107;48.850;8.924;2023-11-19T02:15:40;96593.28;;;9.73;100.00
10135;BME280;5107;48.850;8.924;2023-11-19T02:18:26;96586.75;;;9.69;100.00
10135;BME280;5107;48.850;8.924;2023-11-19T02:20:58;96585.94;;;9.68;100.00
10135;BME280;5107;48.850;8.924;2023-11-19T02:23:26;96580.31;;;9.71;100.00
10135;BME280;5107;48.850;8.924;2023-11-19T02:26:12;96586.06;;;9.75;100.00
10135;BME280;5107;48.850;8.924;2023-11-19T02:28:39;96581.13;;;9.80;100.00
10135;BME280;5107;48.850;8.924;2023-11-19T02:31:05;96575.03;;;9.79;100.00
10135;BME280;5107;48.850;8.924;2023-11-19T02:33:31;96575.72;;;9.81;100.00
10135;BME280;5107;48.850;8.924;2023-11-19T02:35:56;96581.94;;;9.80;100.00
10135;BME280;5107;48.850;8.924;2023-11-19T02:38:22;96587.69;;;9.84;100.00
10135;BME280;5107;48.850;8.924;2023-11-19T02:40:47;96588.00;;;9.89;100.00
10135;BME280;5107;48.850;8.924;2023-11-19T02:43:14;96590.47;;;9.90;100.00
10135;BME280;5107;48.850;8.924;2023-11-19T02:45:39;96584.75;;;9.87;100.00
10135;BME280;5107;48.850;8.924;2023-11-19T02:48:05;96585.22;;;9.90;100.00
10135;BME280;5107;48.850;8.924;2023-11-19T02:50:31;96583.69;;;9.96;100.00
10135;BME280;5107;48.850;8.924;2023-11-19T02:52:57;96579.09;;;9.98;100.00
10135;BME280;5107;48.850;8.924;2023-11-19T02:55:23;96577.94;;;10.01;100.00
10135;BME280;5107;48.850;8.924;2023-11-19T02:57:49;96587.94;;;10.05;100.00
10135;BME280;5107;48.850;8.924;2023-11-19T03:00:16;96589.44;;;10.08;100.00
10135;BME280;5107;48.850;8.924;2023-11-19T03:02:42;96589.72;;;10.13;100.00
10135;BME280;5107;48.850;8.924;2023-11-19T03:05:23;96595.47;;;10.16;100.00
10135;BME280;5107;48.850;8.924;2023-11-19T03:07:49;96591.72;;;10.19;100.00
10135;BME280;5107;48.850;8.924;2023-11-19T03:10:14;96603.06;;;10.19;100.00
10135;BME280;5107;48.850;8.924;2023-11-19T03:12:40;96596.81;;;10.20;100.00
10135;BME280;5107;48.850;8.924;2023-11-19T03:15:06;96595.63;;;10.23;100.00
10135;BME280;5107;48.850;8.924;2023-11-19T03:17:32;96584.63;;;10.27;100.00
10135;BME280;5107;48.850;8.924;2023-11-19T03:19:58;96587.88;;;10.30;100.00
10135;BME280;5107;48.850;8.924;2023-11-19T03:22:24;96590.19;;;10.33;100.00
10135;BME280;5107;48.850;8.924;2023-11-19T03:24:51;96577.38;;;10.30;100.00
10135;BME280;5107;48.850;8.924;2023-11-19T03:27:16;96574.13;;;10.27;100.00
10135;BME280;5107;48.850;8.924;2023-11-19T03:29:42;96576.25;;;10.24;100.00
10135;BME280;5107;48.850;8.924;2023-11-19T03:32:07;96575.09;;;10.26;100.00
10135;BME280;5107;48.850;8.924;2023-11-19T03:34:32;96581.84;;;10.29;100.00
10135;BME280;5107;48.850;8.924;2023-11-19T03:36:58;96581.00;;;10.29;100.00
10135;BME280;5107;48.850;8.924;2023-11-19T03:39:23;96579.00;;;10.31;100.00
10135;BME280;5107;48.850;8.924;2023-11-19T03:41:50;96583.78;;;10.35;100.00
10135;BME280;5107;48.850;8.924;2023-11-19T03:44:15;96581.59;;;10.39;100.00
10135;BME280;5107;48.850;8.924;2023-11-19T03:46:41;96577.97;;;10.40;100.00
10135;BME280;5107;48.850;8.924;2023-11-19T03:49:07;96578.63;;;10.42;100.00
10135;BME280;5107;48.850;8.924;2023-11-19T03:51:32;96565.66;;;10.40;100.00
10135;BME280;5107;48.850;8.924;2023-11-19T03:53:57;96555.31;;;10.39;100.00
10135;BME280;5107;48.850;8.924;2023-11-19T03:56:24;96559.56;;;10.40;100.00
10135;BME280;5107;48.850;8.924;2023-11-19T03:58:49;96550.84;;;10.39;100.00
10135;BME280;5107;48.850;8.924;2023-11-19T04:01:14;96556.94;;;10.40;100.00
10135;BME280;5107;48.850;8.924;2023-11-19T04:03:40;96558.59;;;10.41;100.00
10135;BME280;5107;48.850;8.924;2023-11-19T04:06:05;96557.44;;;10.43;100.00
10135;BME280;5107;48.850;8.924;2023-11-19T04:08:31;96563.50;;;10.44;100.00
10135;BME280;5107;48.850;8.924;2023-11-19T04:10:56;96564.16;;;10.46;100.00
10135;BME280;5107;48.850;8.924;2023-11-19T04:13:21;96571.84;;;10.47;100.00
10135;BME280;5107;48.850;8.924;2023-11-19T04:15:49;96575.16;;;10.49;100.00
10135;BME280;5107;48.850;8.924;2023-11-19T04:18:15;96572.19;;;10.52;100.00
10135;BME280;5107;48.850;8.924;2023-11-19T04:20:41;96566.09;;;10.52;100.00
10135;BME280;5107;48.850;8.924;2023-11-19T04:23:08;96563.47;;;10.52;100.00
10135;BME280;5107;48.850;8.924;2023-11-19T04:25:33;96575.47;;;10.54;100.00
10135;BME280;5107;48.850;8.924;2023-11-19T04:27:59;96560.13;;;10.58;100.00
10135;BME280;5107;48.850;8.924;2023-11-19T04:30:25;96559.81;;;10.61;100.00
10135;BME280;5107;48.850;8.924;2023-11-19T04:32:50;96570.44;;;10.68;100.00
10135;BME280;5107;48.850;8.924;2023-11-19T04:35:15;96561.84;;;10.74;100.00
10135;BME280;5107;48.850;8.924;2023-11-19T04:37:41;96563.97;;;10.78;100.00
10135;BME280;5107;48.850;8.924;2023-11-19T04:40:07;96560.97;;;10.81;100.00
10135;BME280;5107;48.850;8.924;2023-11-19T04:42:32;96562.59;;;10.82;100.00
10135;BME280;5107;48.850;8.924;2023-11-19T04:44:58;96556.47;;;10.90;100.00
10135;BME280;5107;48.850;8.924;2023-11-19T04:47:23;96561.50;;;10.99;100.00
10135;BME280;5107;48.850;8.924;2023-11-19T04:49:49;96563.72;;;11.11;100.00
10135;BME280;5107;48.850;8.924;2023-11-19T04:52:14;96568.22;;;11.25;100.00
10135;BME280;5107;48.850;8.924;2023-11-19T04:54:48;96570.25;;;11.37;100.00
10135;BME280;5107;48.850;8.924;2023-11-19T04:57:13;96576.44;;;11.45;100.00
10135;BME280;5107;48.850;8.924;2023-11-19T04:59:39;96566.09;;;11.58;100.00
10135;BME280;5107;48.850;8.924;2023-11-19T05:02:05;96574.09;;;11.64;100.00
10135;BME280;5107;48.850;8.924;2023-11-19T05:04:31;96565.69;;;11.69;100.00
10135;BME280;5107;48.850;8.924;2023-11-19T05:06:56;96555.25;;;11.75;100.00
10135;BME280;5107;48.850;8.924;2023-11-19T05:09:21;96572.16;;;11.81;100.00
10135;BME280;5107;48.850;8.924;2023-11-19T05:11:47;96575.44;;;11.83;100.00
10135;BME280;5107;48.850;8.924;2023-11-19T05:14:13;96571.47;;;11.87;100.00
10135;BME280;5107;48.850;8.924;2023-11-19T05:16:40;96578.56;;;11.87;100.00
10135;BME280;5107;48.850;8.924;2023-11-19T05:19:05;96589.34;;;11.92;100.00
10135;BME280;5107;48.850;8.924;2023-11-19T05:21:31;96586.97;;;11.97;100.00
10135;BME280;5107;48.850;8.924;2023-11-19T05:23:56;96571.16;;;11.97;100.00
10135;BME280;5107;48.850;8.924;2023-11-19T05:26:23;96583.00;;;12.01;100.00
10135;BME280;5107;48.850;8.924;2023-11-19T05:28:49;96575.91;;;12.01;100.00
10135;BME280;5107;48.850;8.924;2023-11-19T05:31:16;96577.16;;;12.05;99.67
10135;BME280;5107;48.850;8.924;2023-11-19T05:33:42;96575.16;;;12.07;99.87
10135;BME280;5107;48.850;8.924;2023-11-19T05:36:07;96579.28;;;12.10;99.35
10135;BME280;5107;48.850;8.924;2023-11-19T05:38:36;96570.81;;;12.14;98.21
10135;BME280;5107;48.850;8.924;2023-11-19T05:41:02;96568.16;;;12.14;98.52
10135;BME280;5107;48.850;8.924;2023-11-19T05:43:27;96557.81;;;12.13;98.14
10135;BME280;5107;48.850;8.924;2023-11-19T05:45:53;96553.34;;;12.13;98.14
10135;BME280;5107;48.850;8.924;2023-11-19T05:48:18;96554.16;;;12.14;97.54
10135;BME280;5107;48.850;8.924;2023-11-19T05:50:43;96543.00;;;12.12;97.52
10135;BME280;5107;48.850;8.924;2023-11-19T05:53:10;96548.44;;;12.10;98.05
10135;BME280;5107;48.850;8.924;2023-11-19T05:55:38;96552.91;;;12.10;97.29
10135;BME280;5107;48.850;8.924;2023-11-19T05:58:11;96564.09;;;12.12;97.75
10135;BME280;5107;48.850;8.924;2023-11-19T06:00:38;96553.53;;;12.12;97.54
10135;BME280;5107;48.850;8.924;2023-11-19T06:03:04;96554.78;;;12.16;97.29
10135;BME280;5107;48.850;8.924;2023-11-19T06:05:29;96558.25;;;12.16;97.24
10135;BME280;5107;48.850;8.924;2023-11-19T06:07:54;96566.00;;;12.18;97.15
10135;BME280;5107;48.850;8.924;2023-11-19T06:10:20;96567.88;;;12.24;96.80
10135;BME280;5107;48.850;8.924;2023-11-19T06:12:45;96572.81;;;12.27;96.14
10135;BME280;5107;48.850;8.924;2023-11-19T06:15:11;96578.09;;;12.27;96.37
10135;BME280;5107;48.850;8.924;2023-11-19T06:17:36;96587.91;;;12.33;95.87
10135;BME280;5107;48.850;8.924;2023-11-19T06:20:04;96584.63;;;12.31;95.52
10135;BME280;5107;48.850;8.924;2023-11-19T06:22:30;96579.97;;;12.33;95.91
10135;BME280;5107;48.850;8.924;2023-11-19T06:24:56;96581.25;;;12.37;95.56
10135;BME280;5107;48.850;8.924;2023-11-19T06:27:21;96576.00;;;12.37;95.72
10135;BME280;5107;48.850;8.924;2023-11-19T06:29:47;96581.88;;;12.39;96.09
10135;BME280;5107;48.850;8.924;2023-11-19T06:32:13;96579.25;;;12.39;95.68
10135;BME280;5107;48.850;8.924;2023-11-19T06:34:38;96590.44;;;12.41;95.75
10135;BME280;5107;48.850;8.924;2023-11-19T06:37:04;96578.25;;;12.40;95.72
10135;BME280;5107;48.850;8.924;2023-11-19T06:39:29;96583.50;;;12.40;96.43
10135;BME280;5107;48.850;8.924;2023-11-19T06:41:57;96580.88;;;12.40;95.95
10135;BME280;5107;48.850;8.924;2023-11-19T06:44:22;96587.78;;;12.41;96.61
10135;BME280;5107;48.850;8.924;2023-11-19T06:46:49;96581.53;;;12.42;96.00
10135;BME280;5107;48.850;8.924;2023-11-19T06:49:14;96579.25;;;12.39;96.33
10135;BME280;5107;48.850;8.924;2023-11-19T06:51:42;96581.63;;;12.34;96.19
10135;BME280;5107;48.850;8.924;2023-11-19T06:54:09;96586.25;;;12.32;96.29
10135;BME280;5107;48.850;8.924;2023-11-19T06:56:34;96577.34;;;12.33;96.04
10135;BME280;5107;48.850;8.924;2023-11-19T06:58:59;96571.41;;;12.31;96.18
10135;BME280;5107;48.850;8.924;2023-11-19T07:01:25;96577.69;;;12.30;96.04
10135;BME280;5107;48.850;8.924;2023-11-19T07:03:50;96577.91;;;12.29;95.81
10135;BME280;5107;48.850;8.924;2023-11-19T07:06:16;96578.09;;;12.27;95.83
10135;BME280;5107;48.850;8.924;2023-11-19T07:08:42;96585.00;;;12.28;95.70
10135;BME280;5107;48.850;8.924;2023-11-19T07:11:10;96580.97;;;12.32;95.33
10135;BME280;5107;48.850;8.924;2023-11-19T07:13:37;96576.59;;;12.39;94.56
10135;BME280;5107;48.850;8.924;2023-11-19T07:16:02;96586.78;;;12.42;94.35
10135;BME280;5107;48.850;8.924;2023-11-19T07:18:28;96601.72;;;12.50;94.03
10135;BME280;5107;48.850;8.924;2023-11-19T07:20:54;96595.53;;;12.43;94.07
10135;BME280;5107;48.850;8.924;2023-11-19T07:23:19;96593.97;;;12.48;94.00
10135;BME280;5107;48.850;8.924;2023-11-19T07:25:45;96598.00;;;12.44;93.80
10135;BME280;5107;48.850;8.924;2023-11-19T07:28:14;96611.47;;;12.35;93.86
10135;BME280;5107;48.850;8.924;2023-11-19T07:30:40;96596.38;;;12.29;93.93
10135;BME280;5107;48.850;8.924;2023-11-19T07:33:05;96616.38;;;12.23;94.03
10135;BME280;5107;48.850;8.924;2023-11-19T07:35:31;96618.41;;;12.21;94.76
10135;BME280;5107;48.850;8.924;2023-11-19T07:37:57;96611.91;;;12.24;93.92
10135;BME280;5107;48.850;8.924;2023-11-19T07:40:23;96609.75;;;12.27;94.11
10135;BME280;5107;48.850;8.924;2023-11-19T07:42:49;96619.91;;;12.30;93.64
10135;BME280;5107;48.850;8.924;2023-11-19T07:45:14;96627.28;;;12.35;93.64
10135;BME280;5107;48.850;8.924;2023-11-19T07:47:40;96635.84;;;12.37;93.52
10135;BME280;5107;48.850;8.924;2023-11-19T07:50:08;96638.50;;;12.37;92.85
10135;BME280;5107;48.850;8.924;2023-11-19T07:52:34;96639.66;;;12.34;92.83
10135;BME280;5107;48.850;8.924;2023-11-19T07:55:00;96629.69;;;12.30;93.32
10135;BME280;5107;48.850;8.924;2023-11-19T07:57:25;96637.38;;;12.31;93.80
10135;BME280;5107;48.850;8.924;2023-11-19T07:59:52;96641.03;;;12.30;93.18
10135;BME280;5107;48.850;8.924;2023-11-19T08:02:18;96648.50;;;12.27;93.31
10135;BME280;5107;48.850;8.924;2023-11-19T08:04:45;96636.31;;;12.26;93.51
10135;BME280;5107;48.850;8.924;2023-11-19T08:07:11;96642.06;;;12.29;93.50
10135;BME280;5107;48.850;8.924;2023-11-19T08:09:36;96639.66;;;12.34;93.77
10135;BME280;5107;48.850;8.924;2023-11-19T08:12:03;96628.19;;;12.42;92.95
10135;BME280;5107;48.850;8.924;2023-11-19T08:14:28;96636.56;;;12.60;92.04
10135;BME280;5107;48.850;8.924;2023-11-19T08:16:54;96636.50;;;12.89;90.71
10135;BME280;5107;48.850;8.924;2023-11-19T08:19:19;96646.22;;;12.89;89.97
10135;BME280;5107;48.850;8.924;2023-11-19T08:21:44;96647.72;;;12.77;89.98
10135;BME280;5107;48.850;8.924;2023-11-19T08:24:10;96654.59;;;12.71;91.50
10135;BME280;5107;48.850;8.924;2023-11-19T08:26:35;96660.75;;;12.64;91.72
10135;BME280;5107;48.850;8.924;2023-11-19T08:29:00;96654.13;;;12.68;90.73
10135;BME280;5107;48.850;8.924;2023-11-19T08:31:26;96648.44;;;12.85;90.40
10135;BME280;5107;48.850;8.924;2023-11-19T08:33:51;96640.22;;;12.95;90.04
10135;BME280;5107;48.850;8.924;2023-11-19T08:36:16;96647.38;;;13.16;89.43
10135;BME280;5107;48.850;8.924;2023-11-19T08:38:42;96650.66;;;13.39;88.53
10135;BME280;5107;48.850;8.924;2023-11-19T08:41:07;96660.75;;;13.50;87.88
10135;BME280;5107;48.850;8.924;2023-11-19T08:43:32;96658.56;;;13.54;88.21
10135;BME280;5107;48.850;8.924;2023-11-19T08:45:58;96646.22;;;13.61;85.87
10135;BME280;5107;48.850;8.924;2023-11-19T08:48:23;96653.63;;;13.72;85.29
10135;BME280;5107;48.850;8.924;2023-11-19T08:50:49;96657.59;;;13.61;84.38
10135;BME280;5107;48.850;8.924;2023-11-19T08:53:15;96654.09;;;13.54;83.95
10135;BME280;5107;48.850;8.924;2023-11-19T08:55:40;96655.97;;;13.60;84.23
10135;BME280;5107;48.850;8.924;2023-11-19T08:58:05;96646.22;;;13.61;82.85
10135;BME280;5107;48.850;8.924;2023-11-19T09:00:31;96641.97;;;13.66;82.64
10135;BME280;5107;48.850;8.924;2023-11-19T09:02:57;96657.63;;;13.89;82.22
10135;BME280;5107;48.850;8.924;2023-11-19T09:05:23;96655.75;;;13.83;81.93
10135;BME280;5107;48.850;8.924;2023-11-19T09:07:48;96655.00;;;13.68;80.93
10135;BME280;5107;48.850;8.924;2023-11-19T09:10:15;96658.84;;;13.65;82.50
10135;BME280;5107;48.850;8.924;2023-11-19T09:12:40;96650.72;;;13.67;81.78
10135;BME280;5107;48.850;8.924;2023-11-19T09:15:05;96656.19;;;13.65;82.45
10135;BME280;5107;48.850;8.924;2023-11-19T09:17:31;96647.38;;;13.58;82.97
10135;BME280;5107;48.850;8.924;2023-11-19T09:19:57;96652.00;;;13.50;83.23
10135;BME280;5107;48.850;8.924;2023-11-19T09:22:22;96656.22;;;13.44;83.87
10135;BME280;5107;48.850;8.924;2023-11-19T09:24:47;96650.94;;;13.44;84.74
10135;BME280;5107;48.850;8.924;2023-11-19T09:27:13;96663.31;;;13.44;84.87
10135;BME280;5107;48.850;8.924;2023-11-19T09:29:38;96659.50;;;13.46;85.10
10135;BME280;5107;48.850;8.924;2023-11-19T09:32:04;96655.13;;;13.60;84.45
10135;BME280;5107;48.850;8.924;2023-11-19T09:34:29;96661.44;;;13.59;84.42
10135;BME280;5107;48.850;8.924;2023-11-19T09:36:55;96664.94;;;13.66;83.72
10135;BME280;5107;48.850;8.924;2023-11-19T09:39:23;96654.75;;;14.12;82.24
10135;BME280;5107;48.850;8.924;2023-11-19T09:41:51;96651.66;;;14.36;79.80
10135;BME280;5107;48.850;8.924;2023-11-19T09:44:16;96650.59;;;14.65;78.81
10135;BME280;5107;48.850;8.924;2023-11-19T09:46:43;96649.66;;;14.79;77.01
10135;BME280;5107;48.850;8.924;2023-11-19T09:49:10;96646.38;;;14.77;76.52
10135;BME280;5107;48.850;8.924;2023-11-19T09:51:36;96648.75;;;14.59;76.60
10135;BME280;5107;48.850;8.924;2023-11-19T09:54:02;96655.28;;;14.63;76.81
10135;BME280;5107;48.850;8.924;2023-11-19T09:56:29;96650.31;;;14.95;75.66
10135;BME280;5107;48.850;8.924;2023-11-19T09:58:58;96646.44;;;14.50;75.81
10135;BME280;5107;48.850;8.924;2023-11-19T10:01:26;96636.88;;;14.49;76.28
10135;BME280;5107;48.850;8.924;2023-11-19T10:03:55;96640.31;;;14.49;77.71
10135;BME280;5107;48.850;8.924;2023-11-19T10:06:20;96637.13;;;14.60;75.69
10135;BME280;5107;48.850;8.924;2023-11-19T10:08:46;96634.91;;;15.18;75.16
10135;BME280;5107;48.850;8.924;2023-11-19T10:11:12;96641.03;;;15.25;73.12
10135;BME280;5107;48.850;8.924;2023-11-19T10:13:38;96617.78;;;15.27;71.49
10135;BME280;5107;48.850;8.924;2023-11-19T10:16:06;96620.88;;;15.50;70.84
10135;BME280;5107;48.850;8.924;2023-11-19T10:18:32;96618.00;;;15.32;71.41
10135;BME280;5107;48.850;8.924;2023-11-19T10:21:03;96612.09;;;15.30;71.46
10135;BME280;5107;48.850;8.924;2023-11-19T10:23:28;96612.72;;;15.45;71.19
10135;BME280;5107;48.850;8.924;2023-11-19T10:25:54;96612.16;;;15.70;71.05
10135;BME280;5107;48.850;8.924;2023-11-19T10:28:26;96605.19;;;15.95;68.42
10135;BME280;5107;48.850;8.924;2023-11-19T10:30:56;96610.91;;;16.05;68.27
10135;BME280;5107;48.850;8.924;2023-11-19T10:33:21;96602.28;;;16.16;66.76
10135;BME280;5107;48.850;8.924;2023-11-19T10:35:54;96599.88;;;16.15;65.88
10135;BME280;5107;48.850;8.924;2023-11-19T10:38:22;96607.84;;;15.95;66.36
10135;BME280;5107;48.850;8.924;2023-11-19T10:40:48;96606.00;;;15.96;67.26
10135;BME280;5107;48.850;8.924;2023-11-19T10:43:14;96605.75;;;16.30;66.08
10135;BME280;5107;48.850;8.924;2023-11-19T10:45:40;96617.00;;;16.19;64.99
10135;BME280;5107;48.850;8.924;2023-11-19T10:48:06;96601.09;;;15.92;65.64
10135;BME280;5107;48.850;8.924;2023-11-19T10:50:43;96614.16;;;16.07;65.77
10135;BME280;5107;48.850;8.924;2023-11-19T10:53:10;96614.19;;;15.94;66.13
10135;BME280;5107;48.850;8.924;2023-11-19T10:55:38;96615.09;;;16.46;65.67
10135;BME280;5107;48.850;8.924;2023-11-19T10:58:10;96612.53;;;16.13;65.53
10135;BME280;5107;48.850;8.924;2023-11-19T11:00:47;96613.97;;;15.96;66.52
10135;BME280;5107;48.850;8.924;2023-11-19T11:03:20;96604.34;;;15.42;67.20
10135;BME280;5107;48.850;8.924;2023-11-19T11:05:49;96615.13;;;15.27;68.23
10135;BME280;5107;48.850;8.924;2023-11-19T11:08:15;96621.84;;;15.23;68.23
10135;BME280;5107;48.850;8.924;2023-11-19T11:10:54;96622.25;;;15.20;69.38
10135;BME280;5107;48.850;8.924;2023-11-19T11:13:22;96628.75;;;15.11;68.96
10135;BME280;5107;48.850;8.924;2023-11-19T11:15:49;96627.81;;;15.38;67.72
10135;BME280;5107;48.850;8.924;2023-11-19T11:18:15;96611.13;;;15.77;66.57
10135;BME280;5107;48.850;8.924;2023-11-19T11:20:44;96607.88;;;15.62;67.27
10135;BME280;5107;48.850;8.924;2023-11-19T11:26:33;96615.34;;;16.24;65.00
10135;BME280;5107;48.850;8.924;2023-11-19T11:29:08;96620.41;;;16.46;63.39
10135;BME280;5107;48.850;8.924;2023-11-19T11:37:17;96595.94;;;16.95;62.44
10135;BME280;5107;48.850;8.924;2023-11-19T11:39:48;96587.66;;;17.10;61.44
10135;BME280;5107;48.850;8.924;2023-11-19T11:47:25;96590.06;;;17.18;61.88
10135;BME280;5107;48.850;8.924;2023-11-19T11:49:51;96586.00;;;17.15;61.41
10135;BME280;5107;48.850;8.924;2023-11-19T11:52:17;96589.59;;;16.96;61.99
10135;BME280;5107;48.850;8.924;2023-11-19T11:54:44;96581.63;;;16.96;62.11
10135;BME280;5107;48.850;8.924;2023-11-19T11:57:14;96588.41;;;16.85;62.05
10135;BME280;5107;48.850;8.924;2023-11-19T11:59:46;96582.59;;;16.50;62.31
10135;BME280;5107;48.850;8.924;2023-11-19T12:02:15;96600.88;;;16.20;63.63
10135;BME280;5107;48.850;8.924;2023-11-19T12:04:41;96602.75;;;15.80;64.92
10135;BME280;5107;48.850;8.924;2023-11-19T12:07:20;96602.31;;;16.23;64.46
10135;BME280;5107;48.850;8.924;2023-11-19T12:09:48;96608.56;;;16.48;62.53
10135;BME280;5107;48.850;8.924;2023-11-19T12:12:21;96602.09;;;16.89;62.41
10135;BME280;5107;48.850;8.924;2023-11-19T12:20:05;96587.19;;;16.23;60.25
10135;BME280;5107;48.850;8.924;2023-11-19T12:22:37;96586.28;;;16.62;60.63
10135;BME280;5107;48.850;8.924;2023-11-19T12:25:05;96577.47;;;17.06;58.49
10135;BME280;5107;48.850;8.924;2023-11-19T12:27:31;96566.56;;;17.46;57.61
10135;BME280;5107;48.850;8.924;2023-11-19T12:29:59;96546.84;;;16.91;56.73
10135;BME280;5107;48.850;8.924;2023-11-19T12:32:24;96559.66;;;16.69;58.51
10135;BME280;5107;48.850;8.924;2023-11-19T12:34:50;96543.41;;;17.22;56.71
10135;BME280;5107;48.850;8.924;2023-11-19T12:37:15;96551.78;;;17.50;56.85
10135;BME280;5107;48.850;8.924;2023-11-19T12:39:40;96551.56;;;17.76;55.90
10135;BME280;5107;48.850;8.924;2023-11-19T12:42:06;96566.56;;;17.46;55.73
10135;BME280;5107;48.850;8.924;2023-11-19T12:44:31;96557.50;;;16.91;56.17
10135;BME280;5107;48.850;8.924;2023-11-19T12:47:01;96552.16;;;16.97;56.50
10135;BME280;5107;48.850;8.924;2023-11-19T12:49:27;96556.25;;;16.93;56.98
10135;BME280;5107;48.850;8.924;2023-11-19T12:51:52;96546.84;;;16.97;56.72
10135;BME280;5107;48.850;8.924;2023-11-19T12:54:18;96556.84;;;16.51;57.61
10135;BME280;5107;48.850;8.924;2023-11-19T12:56:53;96567.03;;;16.67;57.54
10135;BME280;5107;48.850;8.924;2023-11-19T12:59:18;96548.41;;;16.74;56.17
10135;BME280;5107;48.850;8.924;2023-11-19T13:02:16;96557.72;;;16.89;55.88
10135;BME280;5107;48.850;8.924;2023-11-19T13:04:41;96561.25;;;17.15;55.93
10135;BME280;5107;48.850;8.924;2023-11-19T13:07:08;96559.38;;;17.22;55.36
10135;BME280;5107;48.850;8.924;2023-11-19T13:09:33;96563.47;;;17.18;56.09
10135;BME280;5107;48.850;8.924;2023-11-19T13:11:58;96555.38;;;17.06;56.29
10135;BME280;5107;48.850;8.924;2023-11-19T13:14:36;96549.84;;;17.32;55.79
10135;BME280;5107;48.850;8.924;2023-11-19T13:17:01;96544.78;;;17.31;55.44
10135;BME280;5107;48.850;8.924;2023-11-19T13:19:26;96553.53;;;17.06;54.33
10135;BME280;5107;48.850;8.924;2023-11-19T13:21:52;96554.50;;;16.23;56.38
10135;BME280;5107;48.850;8.924;2023-11-19T13:24:17;96546.81;;;15.82;57.69
10135;BME280;5107;48.850;8.924;2023-11-19T13:26:43;96545.59;;;15.25;59.65